EDT,Max TemperatureF,Mean TemperatureF,Min TemperatureF,Max Dew PointF,MeanDew PointF,Min DewpointF,Max Humidity, Mean Humidity, Min Humidity, Max Sea Level PressureIn, Mean Sea Level PressureIn, Min Sea Level PressureIn, Max VisibilityMiles, Mean VisibilityMiles, Min VisibilityMiles, Max Wind SpeedMPH, Mean Wind SpeedMPH, Max Gust SpeedMPH,PrecipitationIn, CloudCover, Events, WindDirDegrees
2011-10-1,50,46,42,46,42,38,93,82,71,30.06,29.95,29.83,10,6,2,22,11,29,0.25,8,Rain,328
2011-10-2,53,46,38,41,37,33,96,81,65,30.04,30.01,29.95,10,8,3,25,10,36,0.18,7,Rain,340
2011-10-3,55,49,43,52,48,40,93,90,86,30.16,30.06,30.01,10,4,2,14,6,17,0.19,8,Rain,315
2011-10-4,68,58,48,54,49,43,96,69,42,30.27,30.23,30.17,10,7,2,16,5,20,T,5,,307
2011-10-5,74,59,44,51,47,43,100,68,35,30.31,30.28,30.25,10,6,0,12,4,16,0.00,1,Fog,276
2011-10-6,76,63,49,54,50,46,89,65,41,30.37,30.33,30.30,10,9,5,7,2,26,0.00,0,,121
2011-10-7,76,64,51,54,51,48,89,65,41,30.44,30.39,30.34,10,8,3,7,2,10,0.00,0,,139
2011-10-8,78,65,51,55,51,47,83,62,40,30.47,30.42,30.39,10,9,6,12,5,25,0.00,0,,160
2011-10-9,78,66,53,53,50,47,83,60,36,30.45,30.39,30.34,10,10,8,8,3,14,0.00,2,,140
2011-10-10,75,65,55,56,51,47,78,61,44,30.33,30.27,30.18,10,10,8,8,5,10,0.00,6,,99
2011-10-11,73,63,53,54,51,48,77,62,47,30.17,30.10,30.01,10,9,8,9,6,12,0.00,7,,121
2011-10-12,63,60,56,57,55,52,93,80,67,30.00,29.90,29.78,10,4,1,17,8,21,0.34,8,Rain,128
2011-10-13,69,63,57,59,56,53,97,77,57,29.77,29.61,29.42,10,5,2,13,6,16,0.44,7,Rain-Thunderstorm,157
2011-10-14,60,53,45,58,48,36,93,68,43,29.62,29.47,29.38,10,8,2,25,12,36,0.51,7,Rain,254
2011-10-15,58,52,45,42,36,30,71,54,36,29.89,29.70,29.60,10,10,5,31,16,45,0.10,5,Rain,259
2011-10-16,62,55,47,51,42,36,86,67,48,29.94,29.82,29.68,10,9,2,18,9,26,0.09,7,Rain,241
2011-10-17,62,52,41,41,31,20,89,55,20,29.86,29.82,29.78,10,10,10,25,11,35,0.00,3,,242
2011-10-18,59,53,47,42,36,27,80,58,35,29.85,29.80,29.72,10,10,8,18,7,22,0.07,8,Rain-Thunderstorm,294
2011-10-19,60,54,47,56,49,42,93,90,86,29.75,29.40,29.15,10,5,1,28,13,37,1.67,8,Rain-Thunderstorm,57
2011-10-20,48,45,42,46,40,37,93,88,82,29.70,29.38,29.21,10,5,1,28,17,37,0.28,8,Rain,219
2011-10-21,48,45,42,40,39,37,89,80,71,30.12,29.97,29.73,10,8,2,17,9,23,0.09,8,Rain,268
2011-10-22,56,48,40,41,38,34,89,68,47,30.14,30.11,30.08,10,8,5,12,4,17,0.00,5,,243
2011-10-23,61,49,37,39,37,34,86,63,39,30.12,30.07,30.03,10,8,5,15,6,23,T,4,,196
2011-10-24,58,50,42,49,42,33,89,73,56,30.15,30.02,29.95,10,8,2,16,7,32,0.14,5,Rain,236
2011-10-25,64,51,38,38,36,33,79,57,34,30.23,30.12,29.94,10,10,10,20,8,25,0.00,3,,217
2011-10-26,61,56,50,52,48,38,93,70,47,29.91,29.82,29.75,10,8,2,18,9,23,0.41,8,Rain,245
2011-10-27,50,41,32,48,39,30,96,91,85,30.14,29.90,29.76,10,6,1,17,8,23,0.24,6,Fog-Rain,348
2011-10-28,53,42,30,36,31,26,100,77,53,30.25,30.18,30.13,10,6,0,12,4,16,0.00,6,Fog,142
2011-10-29,50,40,30,35,31,27,92,69,45,30.13,30.09,30.04,10,7,3,13,4,17,0.01,5,Rain-Snow,58
2011-10-30,50,40,29,38,32,27,100,78,56,30.30,30.22,30.14,10,5,0,13,5,17,0.00,3,Fog,180
2011-10-31,51,43,35,39,35,33,92,74,56,30.22,30.16,30.10,10,7,4,20,8,25,0.01,6,Rain,176